Aeroporto :
LOGIN :

Iscrizione | Disclaimer

   EN    FR    IT 

 










Sommario :    VFR   VFR Marginale   IFR   IFR Intensivo   IFR Molto Intensivo
Visibilità : 
Base nubi : 
>= 8 km
>= 3000ft
5 / 8 km
1000 / 3000 ft
1500m / 5 km
500 / 1000 ft
800 / 1500m
200 / 500 ft
< 800m
< 200 ft
Simboli :   Temporali  Nebbia  Neve Forte  Precipitazioni Forti  Vento > 20 kt
SIGMETs :   Varie  Temporali  Ghiacco  Turbolenza  Onda orograficha  Ceneri Vulcaniche







- Altitudine del aeroporto : 287 ft
- Carte del aeroporto


LFRL - Lanveoc Poulmic

ULTIMO METAR :
  • 141730Z AUTO 15009KT CAVOK 11/11 Q1019 TEMPO 0600 FG VV///

METARs OBSOLETI :
  • 141700Z AUTO 15009KT CAVOK 12/11 Q1018 TEMPO 0600 FG VV///
  • 141630Z AUTO 15009KT CAVOK 12/11 Q1018 TEMPO 0600 FG VV///
  • 141600Z AUTO 15010KT CAVOK 13/11 Q1019 TEMPO 3000 BR BKN004
  • 141530Z AUTO 16010KT 9999 FEW007 13/11 Q1019 TEMPO 3000 BR BKN004
  • 141500Z AUTO 16009KT 9999 BKN007 BKN011 BKN021 13/11 Q1019 TEMPO 3000 BR BKN004
  • 141430Z AUTO 14007KT 110V170 9999 BKN006 BKN010 OVC023 13/11 Q1019 TEMPO 3000 BR BKN004

TAF TAF LFRL
Valido dal 14 a 12 ore il 15 a 12 ore UTC


141100Z 1412/1512 16010KT 9999 OVC013
TEMPO 1412/1512 3000 BR BKN004
PROB40
TEMPO 1418/1509 0600 FG VV///
Nessun NOTAM noto per questo aeroporto.



MetMap, La meteo Aeronautica in un colpo d'occhio ! - Copyright ORBIFLY Dicembre 2007 - Disclaimer

ORBIFLY MET'MAP TEAM :

Programmazione e sviluppo : Alexandra Zaïnal
Concezione e sviluppo : Baudouin d'Aumeries
Co-Programmazione e sviluppo : Marc-Olivier Méhu
Supporto tecnico e logistico : Manuel Goepfert
Aiuto per la traduzione : Arnaldo La Scala

Contatto : metmap@orbifly.com




FONTI E CREDITI :

   NOAA